Latest Weather Observations for Wadeye (Port Keats)

IDD60801

Issued at 3:35 pm CST Monday 22 September 2014 (issued every 30 minutes, with the page automatically refreshed every 10 minutes)

About weather observations | Map of weather stations | Latest weather observations for NT | Other Formats
Station Details ID: 014948 Name: PORT KEATS AIRPORT Lat: -14.25 Lon: 129.53 Height: 28.0 m
Data from the previous 72 hours. | See also: Recent months at Wadeye (Port Keats)
Date/Time
CST
Temp
°C
App
Temp
°C
Dew
Point
Rel
Hum
%
Delta-T
°C
Wind Press
QNH
hPa
Press
MSL
hPa
Rain
since 9 am
mm
Dir
 
Spd
km/h
Gust
km/h
Spd
kts
Gust
kts
22/03:30pm 31.9 29.5 12.7 31 11.4 NW 17 26 9 14 1011.1 1010.9 0.0
22/03:00pm 32.3 29.7 12.0 29 12.0 NNW 17 24 9 13 1011.4 1011.2 0.0
22/02:30pm 32.0 29.1 12.3 30 11.7 NW 19 28 10 15 1011.9 1011.7 0.0
22/02:00pm 32.3 29.9 12.5 30 11.8 NNW 17 26 9 14 1012.3 1012.1 0.0
22/01:30pm 32.0 28.7 11.7 28 11.9 N 20 30 11 16 1012.6 1012.4 0.0
22/01:00pm 33.0 30.4 12.1 28 12.4 NW 17 26 9 14 1013.0 1012.8 0.0
22/12:30pm 31.8 30.7 15.3 37 10.2 NW 15 20 8 11 1013.5 1013.3 0.0
22/12:00pm 31.9 30.4 14.1 34 10.8 N 15 22 8 12 1014.1 1013.9 0.0
22/11:30am 30.7 31.4 19.7 52 7.2 N 15 24 8 13 1014.4 1014.2 0.0
22/11:00am 30.5 31.7 19.8 52 7.0 N 13 20 7 11 1015.0 1014.8 0.0
22/10:30am 29.9 32.2 20.7 57 6.1 N 9 17 5 9 1015.3 1015.1 0.0
22/10:00am 28.2 29.4 20.0 61 5.4 N 13 17 7 9 1015.5 1015.3 0.0
22/09:30am 27.7 29.6 21.3 68 4.3 NNE 13 19 7 10 1015.4 1015.2 0.0
22/09:00am 26.5 28.8 20.6 70 3.9 NE 9 13 5 7 1015.4 1015.2 0.0
22/08:30am 25.0 27.0 20.0 74 3.2 ENE 9 13 5 7 1015.2 1015.0 0.0
22/08:00am 23.7 25.6 19.8 79 2.5 E 9 11 5 6 1015.1 1014.9 0.0
22/07:30am 22.5 25.5 20.0 86 1.6 E 4 9 2 5 1014.7 1014.5 0.0
22/07:00am 20.4 23.4 18.5 89 1.2 CALM 0 0 0 0 1014.1 1013.9 0.0
22/06:30am 19.9 22.3 17.1 84 1.7 CALM 0 6 0 3 1013.6 1013.4 0.0
22/06:00am 20.9 24.2 19.0 89 1.2 ESE 0 4 0 2 1013.3 1013.1 0.0
22/05:30am 20.9 24.1 18.8 88 1.3 CALM 0 0 0 0 1013.1 1012.9 0.0
22/05:00am 21.0 23.6 19.3 90 1.1 NE 4 7 2 4 1012.7 1012.5 0.0
22/04:30am 21.2 24.6 19.3 89 1.2 CALM 0 0 0 0 1012.4 1012.2 0.0
22/04:00am 21.6 25.3 19.9 90 1.1 CALM 0 0 0 0 1012.3 1012.1 0.0
22/03:30am 21.5 24.5 19.2 87 1.5 E 2 7 1 4 1012.3 1012.1 0.0
22/03:00am 21.6 24.4 19.7 89 1.2 E 4 9 2 5 1012.3 1012.1 0.0
22/02:30am 21.8 24.8 20.1 90 1.1 SE 4 9 2 5 1012.5 1012.3 0.0
22/02:00am 21.8 25.3 19.5 87 1.5 CALM 0 0 0 0 1012.6 1012.4 0.0
22/01:30am 22.2 25.5 19.9 87 1.5 SW 2 7 1 4 1012.7 1012.5 0.0
22/01:00am 23.1 25.7 20.1 83 1.9 S 6 13 3 7 1013.2 1013.0 0.0
22/12:30am 23.1 25.7 19.3 79 2.4 N 4 11 2 6 1013.0 1012.8 0.0
22/12:00am 24.3 28.0 20.0 77 2.8 N 0 6 0 3 1013.2 1013.0 0.0
 
Date/Time
CST
Temp
°C
App
Temp
°C
Dew
Point
Rel
Hum
%
Delta-T
°C
Wind Press
QNH
hPa
Press
MSL
hPa
Rain
since 9 am
mm
Dir
 
Spd
km/h
Gust
km/h
Spd
kts
Gust
kts
21/11:30pm 24.5 27.2 20.2 77 2.8 WNW 6 7 3 4 1013.4 1013.2 0.0
21/11:00pm 24.7 27.2 19.8 74 3.2 NW 6 9 3 5 1013.5 1013.3 0.0
21/10:30pm 25.4 27.6 20.4 74 3.3 NNW 9 11 5 6 1013.4 1013.2 0.0
21/10:00pm 25.4 28.5 20.2 73 3.4 WNW 4 9 2 5 1013.2 1013.0 0.0
21/09:30pm 25.5 29.2 19.9 71 3.6 CALM 0 7 0 4 1013.1 1012.9 0.0
21/09:00pm 25.7 27.6 19.8 70 3.8 NNE 9 11 5 6 1012.9 1012.7 0.0
21/08:30pm 25.7 27.9 19.1 67 4.2 W 6 7 3 4 1012.3 1012.1 0.0
21/08:00pm 26.3 28.4 18.9 63 4.7 NW 6 9 3 5 1012.0 1011.8 0.0
21/07:30pm 26.9 28.0 17.1 55 6.1 W 7 11 4 6 1012.0 1011.8 0.0
21/07:00pm 28.0 28.3 15.0 45 7.9 W 7 13 4 7 1011.8 1011.6 0.0
21/06:30pm 29.4 28.7 13.2 37 9.6 WNW 9 15 5 8 1011.6 1011.4 0.0
21/06:00pm 30.6 29.0 11.5 30 11.1 W 11 20 6 11 1011.3 1011.1 0.0
21/05:30pm 30.9 27.9 10.8 29 11.6 WSW 17 28 9 15 1011.1 1010.9 0.0
21/05:00pm 32.3 30.1 10.9 27 12.4 WSW 13 20 7 11 1011.1 1010.9 0.0
21/04:30pm 32.3 29.6 10.4 26 12.6 W 15 24 8 13 1011.1 1010.9 0.0
21/04:00pm 32.7 30.1 10.7 26 12.7 W 15 22 8 12 1011.0 1010.8 0.0
21/03:30pm 33.4 30.6 11.3 26 13.0 W 17 26 9 14 1010.9 1010.7 0.0
21/03:00pm 33.3 30.5 11.2 26 12.9 W 17 22 9 12 1011.1 1010.9 0.0
21/02:30pm 33.4 30.4 10.7 25 13.2 WSW 17 26 9 14 1011.4 1011.2 0.0
21/02:00pm 32.6 29.2 10.6 26 12.7 W 19 26 10 14 1011.9 1011.7 0.0
21/01:30pm 32.8 30.2 10.8 26 12.8 W 15 24 8 13 1012.6 1012.4 0.0
21/01:00pm 33.3 31.4 11.8 27 12.7 W 13 22 7 12 1013.2 1013.0 0.0
21/12:30pm 33.1 31.5 12.7 29 12.2 WNW 13 22 7 12 1013.7 1013.5 0.0
21/12:00pm 32.5 30.9 12.7 30 11.8 WNW 13 22 7 12 1014.2 1014.0 0.0
21/11:30am 32.1 30.1 12.8 30 11.5 W 15 20 8 11 1014.7 1014.5 0.0
21/11:00am 31.9 30.4 13.2 32 11.2 WNW 13 19 7 10 1015.2 1015.0 0.0
21/10:30am 30.9 30.5 15.3 38 9.6 NW 11 17 6 9 1015.5 1015.3 0.0
21/10:00am 30.3 30.6 16.0 42 8.9 NNW 9 19 5 10 1015.7 1015.5 0.0
21/09:30am 28.5 30.1 19.1 56 6.1 N 9 13 5 7 1015.9 1015.7 0.0
21/09:00am 26.8 29.5 20.6 69 4.1 N 7 11 4 6 1015.8 1015.6 0.0
21/08:30am 25.9 29.7 20.9 74 3.3 ENE 2 7 1 4 1015.3 1015.1 0.0
21/08:00am 24.0 28.1 20.7 82 2.2 CALM 0 0 0 0 1015.2 1015.0 0.0
21/07:30am 21.5 25.2 20.0 91 1.0 CALM 0 6 0 3 1014.9 1014.7 0.0
21/07:00am 20.0 23.1 18.7 92 0.8 CALM 0 0 0 0 1014.4 1014.2 0.0
21/06:30am 19.0 21.3 16.8 87 1.3 CALM 0 4 0 2 1013.9 1013.7 0.0
21/06:00am 19.1 21.1 16.9 87 1.3 SE 2 7 1 4 1013.5 1013.3 0.0
21/05:30am 19.2 21.6 17.0 87 1.3 CALM 0 0 0 0 1013.2 1013.0 0.0
21/05:00am 19.3 21.0 16.2 82 1.9 SE 2 7 1 4 1012.7 1012.5 0.0
21/04:30am 20.8 22.8 19.1 90 1.1 E 7 9 4 5 1013.0 1012.8 0.0
21/04:00am 19.4 21.7 16.8 85 1.6 CALM 0 0 0 0 1012.5 1012.3 0.0
21/03:30am 20.1 22.7 17.5 85 1.6 CALM 0 0 0 0 1012.5 1012.3 0.0
21/03:00am 20.1 22.5 17.1 83 1.8 CALM 0 0 0 0 1012.4 1012.2 0.0
21/02:30am 20.2 22.7 17.2 83 1.8 CALM 0 0 0 0 1012.6 1012.4 0.0
21/02:00am 20.6 23.5 18.2 86 1.5 CALM 0 0 0 0 1012.7 1012.5 0.0
21/01:30am 20.6 23.2 17.6 83 1.8 CALM 0 0 0 0 1013.0 1012.8 0.0
21/01:00am 20.4 22.5 16.2 77 2.5 CALM 0 0 0 0 1013.0 1012.8 0.0
21/12:30am 22.6 25.5 19.0 80 2.3 NNE 2 6 1 3 1013.3 1013.1 0.0
21/12:00am 22.7 26.0 19.1 80 2.3 CALM 0 0 0 0 1013.2 1013.0 0.0
 
Date/Time
CST
Temp
°C
App
Temp
°C
Dew
Point
Rel
Hum
%
Delta-T
°C
Wind Press
QNH
hPa
Press
MSL
hPa
Rain
since 9 am
mm
Dir
 
Spd
km/h
Gust
km/h
Spd
kts
Gust
kts
20/11:30pm 22.8 25.7 18.1 75 2.9 CALM 0 0 0 0 1013.6 1013.4 0.0
20/11:00pm 22.2 23.4 16.9 72 3.2 WSW 6 7 3 4 1013.4 1013.2 0.0
20/10:30pm 24.4 26.7 19.5 74 3.1 NNW 6 7 3 4 1013.5 1013.3 0.0
20/10:00pm 24.8 27.1 19.8 74 3.2 N 7 9 4 5 1013.4 1013.2 0.0
20/09:30pm 25.0 26.0 18.7 68 4.0 N 11 15 6 8 1013.1 1012.9 0.0
20/09:00pm 25.6 26.7 16.7 58 5.5 N 6 7 3 4 1012.8 1012.6 0.0
20/08:30pm 25.7 26.0 14.5 50 6.7 NW 6 7 3 4 1012.5 1012.3 0.0
20/08:00pm 26.7 27.2 14.1 46 7.5 W 4 7 2 4 1012.3 1012.1 0.0
20/07:30pm 27.1 27.0 13.4 42 8.1 SW 6 7 3 4 1012.1 1011.9 0.0
20/07:00pm 28.1 27.6 12.8 38 9.0 WSW 7 13 4 7 1011.6 1011.4 0.0
20/06:30pm 29.2 28.4 13.0 37 9.6 WSW 9 15 5 8 1011.1 1010.9 0.0
20/06:00pm 30.1 28.3 12.1 33 10.5 WSW 13 20 7 11 1010.6 1010.4 0.0
20/05:30pm 31.2 30.2 13.5 34 10.6 WSW 11 22 6 12 1010.5 1010.3 0.0
20/05:00pm 30.7 28.8 14.3 36 10.0 W 17 26 9 14 1010.5 1010.3 0.0
20/04:30pm 31.5 29.4 13.7 33 10.8 W 17 26 9 14 1010.5 1010.3 0.0
20/04:00pm 32.0 30.3 13.7 33 11.1 W 15 24 8 13 1010.3 1010.1 0.0
20/03:30pm 32.1 29.5 13.8 33 11.1 W 20 24 11 13 1010.4 1010.2 0.0
20/03:00pm 32.9 30.8 13.5 30 11.7 WNW 17 26 9 14 1010.7 1010.5 0.0
20/02:30pm 33.6 30.8 13.1 29 12.4 NNW 20 26 11 14 1011.1 1010.9 0.0
20/02:00pm 34.2 31.0 12.0 26 13.2 NNW 20 26 11 14 1011.5 1011.3 0.0
20/01:30pm 34.6 31.5 12.3 26 13.3 NNW 20 28 11 15 1012.1 1011.9 0.0
20/01:00pm 33.8 31.5 11.6 26 13.1 NNW 15 20 8 11 1012.9 1012.7 0.0
20/12:30pm 33.5 31.3 10.8 25 13.2 NNW 13 22 7 12 1013.6 1013.4 0.0
20/12:00pm 33.2 31.5 11.1 26 12.9 WNW 11 17 6 9 1014.3 1014.1 0.0
20/11:30am 32.9 31.3 11.4 27 12.6 NNW 11 20 6 11 1014.9 1014.7 0.0
20/11:00am 32.7 30.8 11.8 28 12.3 N 13 19 7 10 1015.3 1015.1 0.0
20/10:30am 31.3 30.4 13.6 34 10.6 NNW 11 17 6 9 1015.6 1015.4 0.0
20/10:00am 30.2 31.1 16.6 44 8.5 NW 7 13 4 7 1015.7 1015.5 0.0
20/09:30am 29.4 30.6 16.9 47 7.8 NNW 6 13 3 7 1015.8 1015.6 0.0
20/09:00am 28.2 30.5 19.4 59 5.7 N 6 9 3 5 1015.6 1015.4 0.0
20/08:30am 26.4 30.3 21.2 73 3.4 N 2 9 1 5 1015.2 1015.0 0.0
20/08:00am 24.9 29.1 22.4 86 1.7 ESE 4 7 2 4 1015.0 1014.8 0.0
20/07:30am 20.6 23.2 18.5 88 1.3 SSE 2 7 1 4 1014.5 1014.3 0.0
20/07:00am 19.8 22.4 17.6 87 1.3 CALM 0 0 0 0 1014.3 1014.1 0.0
20/06:30am 19.4 21.9 17.2 87 1.3 CALM 0 0 0 0 1013.8 1013.6 0.0
20/06:00am 20.0 23.1 18.7 92 0.8 CALM 0 0 0 0 1013.5 1013.3 0.0
20/05:30am 18.8 21.1 16.8 88 1.2 CALM 0 0 0 0 1013.4 1013.2 0.0
20/05:00am 19.0 21.3 16.8 87 1.3 CALM 0 0 0 0 1013.2 1013.0 0.0
20/04:30am 20.6 23.6 18.5 88 1.3 CALM 0 0 0 0 1013.2 1013.0 0.0
20/04:00am 19.6 22.2 17.4 87 1.3 CALM 0 0 0 0 1013.3 1013.1 0.0
20/03:30am 19.6 22.2 17.6 88 1.2 CALM 0 0 0 0 1013.1 1012.9 0.0
20/03:00am 19.3 21.4 16.3 83 1.8 CALM 0 0 0 0 1013.2 1013.0 0.0
20/02:30am 20.1 22.1 16.1 78 2.4 CALM 0 0 0 0 1013.5 1013.3 0.0
20/02:00am 21.8 24.9 18.6 82 2.0 CALM 0 0 0 0 1013.6 1013.4 0.0
20/01:30am 21.5 23.1 17.9 80 2.2 E 6 13 3 7 1013.8 1013.6 0.0
20/01:00am 20.7 22.7 16.1 75 2.8 CALM 0 0 0 0 1013.6 1013.4 0.0
20/12:30am 20.4 22.3 15.8 75 2.7 CALM 0 0 0 0 1013.6 1013.4 0.0
20/12:00am 21.6 23.7 16.3 72 3.2 CALM 0 0 0 0 1013.7 1013.5 0.0
 
Date/Time
CST
Temp
°C
App
Temp
°C
Dew
Point
Rel
Hum
%
Delta-T
°C
Wind Press
QNH
hPa
Press
MSL
hPa
Rain
since 9 am
mm
Dir
 
Spd
km/h
Gust
km/h
Spd
kts
Gust
kts
19/11:30pm 22.5 24.1 16.8 70 3.5 SE 4 7 2 4 1013.7 1013.5 0.0
19/11:00pm 22.3 24.3 16.1 68 3.7 CALM 0 0 0 0 1013.5 1013.3 0.0
19/10:30pm 22.4 24.7 16.7 70 3.5 CALM 0 0 0 0 1013.6 1013.4 0.0
19/10:00pm 23.1 25.3 16.4 66 4.1 CALM 0 0 0 0 1013.5 1013.3 0.0
19/09:30pm 23.9 24.9 16.4 63 4.6 NW 6 6 3 3 1013.3 1013.1 0.0
19/09:00pm 24.6 26.0 16.3 60 5.1 SW 4 7 2 4 1013.0 1012.8 0.0
19/08:30pm 25.5 26.9 16.4 57 5.6 SW 4 6 2 3 1012.6 1012.4 0.0
19/08:00pm 26.8 29.0 16.4 53 6.4 CALM 0 0 0 0 1012.5 1012.3 0.0
19/07:30pm 27.5 28.1 15.8 48 7.2 WSW 7 11 4 6 1012.2 1012.0 0.0
19/07:00pm 28.4 28.9 15.0 44 8.2 W 6 9 3 5 1011.8 1011.6 0.0
19/06:30pm 29.7 29.4 14.3 39 9.3 W 9 15 5 8 1011.5 1011.3 0.0
19/06:00pm 30.8 29.3 13.1 34 10.6 WSW 13 20 7 11 1011.3 1011.1 0.0
19/05:30pm 31.2 28.8 12.5 31 11.1 W 17 26 9 14 1011.0 1010.8 0.0
19/05:00pm 31.9 29.7 13.2 32 11.2 W 17 26 9 14 1011.0 1010.8 0.0
19/04:30pm 32.2 29.9 12.9 31 11.5 WSW 17 30 9 16 1011.0 1010.8 0.0
19/04:00pm 32.4 30.1 13.1 31 11.6 W 17 26 9 14 1011.1 1010.9 0.0

Other Formats:

Comma delimited format used in spreadsheet applications
http://www.bom.gov.au/fwo/IDD60801/IDD60801.95111.axf

JavaScript Object Notation format (JSON) in row-major order
http://www.bom.gov.au/fwo/IDD60801/IDD60801.95111.json